createdAt,value
2017-11-29T00:02:13.291Z,0.60
2017-11-29T00:04:42.161Z,0.60
2017-11-29T00:07:11.358Z,0.50
2017-11-29T00:09:40.504Z,0.50
2017-11-29T00:12:09.074Z,0.50
2017-11-29T00:14:37.527Z,0.50
2017-11-29T00:17:05.978Z,0.40
2017-11-29T00:19:34.513Z,0.40
2017-11-29T00:22:02.963Z,0.30
2017-11-29T00:24:32.165Z,0.30
2017-11-29T00:27:01.718Z,0.30
2017-11-29T00:29:30.169Z,0.20
2017-11-29T00:31:58.584Z,0.20
2017-11-29T00:34:27.009Z,0.30
2017-11-29T00:36:56.654Z,0.30
2017-11-29T00:39:25.229Z,0.30
2017-11-29T00:41:53.734Z,0.30
2017-11-29T00:44:22.215Z,0.30
2017-11-29T00:46:50.651Z,0.40
2017-11-29T00:49:19.333Z,0.30
2017-11-29T00:51:47.776Z,0.30
2017-11-29T00:54:17.015Z,0.30
2017-11-29T00:56:45.693Z,0.30
2017-11-29T00:59:14.182Z,0.30
2017-11-29T01:01:42.970Z,0.30
2017-11-29T01:04:11.502Z,0.20
2017-11-29T01:06:39.886Z,0.30
2017-11-29T01:09:08.300Z,0.40
2017-11-29T01:11:36.781Z,0.40
2017-11-29T01:14:05.984Z,0.50
2017-11-29T01:16:34.360Z,0.50
2017-11-29T01:19:02.804Z,0.40
2017-11-29T01:21:31.221Z,0.50
2017-11-29T01:23:59.657Z,0.40
2017-11-29T01:26:28.426Z,0.40
2017-11-29T01:28:56.862Z,0.40
2017-11-29T01:31:25.294Z,0.40
2017-11-29T01:33:53.740Z,0.40
2017-11-29T01:36:22.151Z,0.40
2017-11-29T01:38:50.607Z,0.40
2017-11-29T01:41:19.381Z,0.50
2017-11-29T01:43:47.842Z,0.50
2017-11-29T01:46:17.044Z,0.60
2017-11-29T01:48:46.451Z,0.50
2017-11-29T01:51:15.246Z,0.60
2017-11-29T01:53:44.480Z,0.60
2017-11-29T01:56:13.135Z,0.60
2017-11-29T01:58:41.521Z,0.60
2017-11-29T02:01:09.961Z,0.60
2017-11-29T02:03:38.872Z,0.60
2017-11-29T02:06:19.180Z,0.60
2017-11-29T02:08:47.828Z,0.50
2017-11-29T02:11:16.253Z,0.60
2017-11-29T02:13:44.953Z,0.60
2017-11-29T02:16:13.433Z,0.70
2017-11-29T02:18:41.892Z,0.60
2017-11-29T02:21:10.373Z,0.70
2017-11-29T02:23:38.869Z,0.70
2017-11-29T02:26:07.335Z,0.70
2017-11-29T02:28:35.815Z,0.70
2017-11-29T02:31:04.352Z,0.70
2017-11-29T02:33:32.837Z,0.80
2017-11-29T02:36:02.063Z,0.80
2017-11-29T02:38:31.194Z,0.80
2017-11-29T02:41:11.439Z,0.80
2017-11-29T02:43:40.297Z,0.80
2017-11-29T02:46:08.760Z,0.70
2017-11-29T02:48:37.264Z,0.70
2017-11-29T02:51:05.886Z,0.60
2017-11-29T02:53:34.376Z,0.70
2017-11-29T02:56:02.842Z,0.70
2017-11-29T02:58:31.496Z,0.80
2017-11-29T03:01:00.051Z,0.80
2017-11-29T03:03:29.255Z,0.90
2017-11-29T03:05:57.778Z,0.80
2017-11-29T03:08:26.218Z,0.80
2017-11-29T03:10:54.662Z,0.80
2017-11-29T03:13:23.596Z,0.90
2017-11-29T03:15:51.992Z,0.90
2017-11-29T03:18:20.417Z,0.80
2017-11-29T03:20:48.902Z,0.70
2017-11-29T03:23:17.305Z,0.80
2017-11-29T03:25:45.781Z,0.70
2017-11-29T03:28:14.989Z,0.70
2017-11-29T03:30:43.386Z,0.70
2017-11-29T03:33:11.829Z,0.80
2017-11-29T03:35:41.329Z,0.90
2017-11-29T03:38:10.527Z,0.80
2017-11-29T03:40:39.696Z,0.80
2017-11-29T03:43:08.142Z,0.70
2017-11-29T03:45:36.735Z,0.80
2017-11-29T03:48:05.110Z,0.80
2017-11-29T03:50:33.770Z,0.90
2017-11-29T03:53:02.230Z,0.90
2017-11-29T03:55:30.633Z,0.90
2017-11-29T03:57:59.106Z,1.00
2017-11-29T04:00:27.604Z,1.10
2017-11-29T04:02:56.138Z,1.10
2017-11-29T04:05:24.597Z,1.10
2017-11-29T04:07:53.061Z,1.10
2017-11-29T04:10:21.539Z,1.00
2017-11-29T04:12:50.062Z,1.00
2017-11-29T04:15:18.551Z,1.10
2017-11-29T04:17:46.983Z,1.00
2017-11-29T04:20:15.491Z,1.10
2017-11-29T04:22:43.930Z,1.20
2017-11-29T04:25:12.422Z,1.30
2017-11-29T04:27:41.296Z,1.30
2017-11-29T04:30:09.775Z,1.40
2017-11-29T04:32:38.189Z,1.40
2017-11-29T04:35:06.636Z,1.50
2017-11-29T04:37:35.053Z,1.50
2017-11-29T04:40:03.538Z,1.50
2017-11-29T04:42:32.178Z,1.40
2017-11-29T04:45:00.560Z,1.50
2017-11-29T04:47:29.366Z,1.40
2017-11-29T04:49:57.925Z,1.40
2017-11-29T04:52:26.399Z,1.30
2017-11-29T04:54:54.884Z,1.40
2017-11-29T04:57:24.770Z,1.50
2017-11-29T04:59:53.211Z,1.50
2017-11-29T05:02:21.658Z,1.50
2017-11-29T05:04:51.265Z,1.60
2017-11-29T05:07:20.518Z,1.60
2017-11-29T05:09:48.977Z,1.60
2017-11-29T05:12:18.325Z,1.60
2017-11-29T05:14:46.802Z,1.50
2017-11-29T05:17:15.304Z,1.60
2017-11-29T05:19:44.201Z,1.50
2017-11-29T05:22:13.412Z,1.40
2017-11-29T05:24:41.864Z,1.40
2017-11-29T05:27:10.826Z,1.60
2017-11-29T05:29:39.678Z,1.50
2017-11-29T05:32:08.150Z,1.60
2017-11-29T05:34:36.794Z,1.60
2017-11-29T05:37:05.330Z,1.60
2017-11-29T05:39:33.782Z,1.70
2017-11-29T05:42:03.057Z,1.70
2017-11-29T05:44:31.590Z,1.70
2017-11-29T05:47:00.068Z,1.70
2017-11-29T05:49:28.922Z,1.50
2017-11-29T05:51:57.370Z,1.70
2017-11-29T05:54:25.859Z,1.60
2017-11-29T05:56:54.372Z,1.70
2017-11-29T05:59:23.612Z,1.70
2017-11-29T06:01:52.056Z,1.70
2017-11-29T06:04:21.585Z,1.60
2017-11-29T06:06:50.119Z,1.60
2017-11-29T06:09:18.560Z,1.60
2017-11-29T06:11:47.053Z,1.60
2017-11-29T06:14:15.514Z,1.50
2017-11-29T06:16:43.981Z,1.50
2017-11-29T06:19:12.610Z,1.60
2017-11-29T06:21:41.049Z,1.60
2017-11-29T06:24:09.488Z,1.70
2017-11-29T06:26:38.002Z,1.70
2017-11-29T06:29:06.452Z,1.70
2017-11-29T06:31:35.068Z,1.60
2017-11-29T06:34:03.747Z,1.80
2017-11-29T06:36:32.922Z,1.80
2017-11-29T06:39:01.334Z,1.80
2017-11-29T06:41:30.035Z,1.80
2017-11-29T06:43:58.514Z,1.70
2017-11-29T06:46:26.940Z,1.80
2017-11-29T06:48:55.766Z,1.70
2017-11-29T06:51:25.386Z,1.60
2017-11-29T06:53:53.796Z,1.60
2017-11-29T06:56:22.336Z,1.70
2017-11-29T06:58:50.728Z,1.70
2017-11-29T07:01:19.174Z,1.80
2017-11-29T07:03:47.940Z,1.80
2017-11-29T07:06:16.371Z,1.90
2017-11-29T07:08:45.029Z,1.90
2017-11-29T07:11:14.370Z,1.80
2017-11-29T07:13:42.807Z,1.80
2017-11-29T07:16:11.226Z,1.90
2017-11-29T07:18:39.666Z,1.90
2017-11-29T07:21:09.828Z,1.80
2017-11-29T07:23:38.253Z,1.80
2017-11-29T07:26:06.697Z,1.80
2017-11-29T07:28:35.113Z,1.80
2017-11-29T07:31:03.527Z,1.90
2017-11-29T07:33:32.447Z,1.90
2017-11-29T07:36:00.910Z,1.90
2017-11-29T07:38:29.334Z,1.90
2017-11-29T07:40:58.277Z,1.80
2017-11-29T07:43:26.716Z,1.80
2017-11-29T07:45:55.148Z,1.90
2017-11-29T07:48:23.810Z,1.90
2017-11-29T07:50:52.983Z,1.90
2017-11-29T07:53:21.802Z,1.90
2017-11-29T07:55:51.154Z,2.00
2017-11-29T07:58:19.606Z,2.00
2017-11-29T08:00:48.061Z,2.00
2017-11-29T08:03:17.244Z,2.10
2017-11-29T08:05:46.415Z,2.00
2017-11-29T08:08:14.802Z,2.00
2017-11-29T08:10:43.517Z,1.90
2017-11-29T08:13:12.682Z,2.20
2017-11-29T08:15:41.098Z,2.10
2017-11-29T08:18:10.365Z,2.20
2017-11-29T08:20:38.804Z,2.20
2017-11-29T08:23:07.248Z,2.20
2017-11-29T08:25:36.774Z,2.20
2017-11-29T08:28:05.377Z,2.10
2017-11-29T08:30:33.852Z,2.20
2017-11-29T08:33:02.350Z,2.20
2017-11-29T08:35:31.638Z,2.40
2017-11-29T08:38:00.194Z,2.30
2017-11-29T08:40:29.598Z,2.50
2017-11-29T08:42:58.827Z,2.50
2017-11-29T08:45:28.155Z,2.60
2017-11-29T08:47:57.070Z,2.60
2017-11-29T08:50:25.584Z,2.60
2017-11-29T08:52:54.055Z,2.50
2017-11-29T08:55:23.016Z,2.70
2017-11-29T08:57:51.482Z,2.60
2017-11-29T09:00:20.063Z,2.70
2017-11-29T09:02:48.707Z,2.70
2017-11-29T09:05:17.200Z,2.70
2017-11-29T09:07:45.700Z,2.70
2017-11-29T09:10:14.351Z,2.70
2017-11-29T09:12:42.931Z,2.80
2017-11-29T09:15:11.465Z,2.70
2017-11-29T09:17:40.097Z,2.60
2017-11-29T09:20:08.586Z,2.50
2017-11-29T09:22:37.165Z,2.50
2017-11-29T09:25:05.698Z,2.50
2017-11-29T09:27:34.248Z,2.50
2017-11-29T09:30:02.762Z,2.70
2017-11-29T09:32:31.583Z,2.60
2017-11-29T09:35:00.794Z,2.70
2017-11-29T09:37:29.632Z,2.60
2017-11-29T09:39:58.952Z,2.80
2017-11-29T09:42:27.435Z,2.70
2017-11-29T09:44:55.959Z,2.90
2017-11-29T09:47:24.650Z,2.90
2017-11-29T09:49:53.183Z,2.80
2017-11-29T09:52:21.727Z,2.90
2017-11-29T09:54:50.743Z,2.90
2017-11-29T09:57:19.382Z,2.80
2017-11-29T09:59:47.861Z,2.80
2017-11-29T10:02:16.394Z,2.80
2017-11-29T10:04:44.923Z,2.90
2017-11-29T10:07:13.520Z,3.10
2017-11-29T10:09:42.095Z,3.10
2017-11-29T10:12:10.576Z,3.30
2017-11-29T10:14:39.123Z,3.30
2017-11-29T10:17:07.804Z,3.40
2017-11-29T10:19:36.284Z,3.20
2017-11-29T10:22:04.764Z,3.40
2017-11-29T10:24:33.452Z,3.30
2017-11-29T10:27:01.988Z,3.20
2017-11-29T10:29:30.511Z,3.20
2017-11-29T10:31:59.044Z,3.10
2017-11-29T10:34:27.520Z,3.20
2017-11-29T10:36:56.006Z,3.20
2017-11-29T10:39:24.620Z,3.30
2017-11-29T10:41:53.113Z,3.20
2017-11-29T10:44:21.666Z,3.30
2017-11-29T10:46:50.244Z,3.20
2017-11-29T10:49:18.829Z,3.30
2017-11-29T10:51:48.323Z,3.20
2017-11-29T10:54:16.927Z,3.30
2017-11-29T10:56:45.483Z,3.30
2017-11-29T10:59:14.639Z,3.40
2017-11-29T11:01:43.530Z,3.50
2017-11-29T11:04:12.057Z,3.50
2017-11-29T11:06:40.544Z,3.50
2017-11-29T11:09:09.174Z,3.50
2017-11-29T11:11:37.704Z,3.40
2017-11-29T11:14:06.224Z,3.40
2017-11-29T11:16:35.261Z,3.40
2017-11-29T11:19:03.849Z,3.40
2017-11-29T11:21:33.863Z,3.40
2017-11-29T11:24:02.654Z,3.40
2017-11-29T11:26:31.156Z,3.40
2017-11-29T11:29:00.534Z,3.50
2017-11-29T11:31:30.135Z,3.50
2017-11-29T11:33:59.437Z,3.60
2017-11-29T11:36:30.305Z,3.70
2017-11-29T11:38:58.987Z,3.70
2017-11-29T11:41:28.012Z,3.80
2017-11-29T11:43:56.512Z,3.70
2017-11-29T11:46:25.253Z,3.70
2017-11-29T11:48:53.751Z,3.80
2017-11-29T11:51:22.282Z,3.90
2017-11-29T11:53:51.705Z,4.00
2017-11-29T11:56:20.455Z,4.00
2017-11-29T11:58:48.927Z,4.00
2017-11-29T12:01:17.867Z,4.10
2017-11-29T12:03:46.323Z,4.10
2017-11-29T12:06:14.861Z,3.90
2017-11-29T12:08:43.373Z,3.70
2017-11-29T12:11:11.858Z,3.90
2017-11-29T12:13:40.345Z,4.00
2017-11-29T12:16:10.081Z,4.20
2017-11-29T12:18:38.833Z,4.10
2017-11-29T12:21:07.320Z,4.10
2017-11-29T12:23:36.734Z,4.10
2017-11-29T12:26:05.211Z,4.10
2017-11-29T12:28:34.461Z,4.00
2017-11-29T12:31:03.896Z,4.20
2017-11-29T12:33:32.358Z,4.20
2017-11-29T12:36:00.825Z,4.10
2017-11-29T12:38:29.601Z,4.10
2017-11-29T12:40:58.078Z,4.10
2017-11-29T12:43:27.987Z,4.30
2017-11-29T12:45:57.576Z,4.40
2017-11-29T12:48:38.687Z,4.30
2017-11-29T12:51:16.067Z,4.30
2017-11-29T12:53:44.624Z,4.50
2017-11-29T12:56:13.897Z,4.30
2017-11-29T12:58:43.545Z,4.30
2017-11-29T13:01:12.038Z,4.20
2017-11-29T13:03:40.868Z,4.00
2017-11-29T13:06:09.607Z,4.10
2017-11-29T13:08:38.125Z,4.40
2017-11-29T13:11:06.607Z,4.50
2017-11-29T13:13:35.453Z,4.50
2017-11-29T13:16:03.928Z,4.30
2017-11-29T13:18:33.168Z,4.30
2017-11-29T13:21:01.813Z,4.30
2017-11-29T13:23:31.080Z,4.10
2017-11-29T13:25:59.510Z,4.00
2017-11-29T13:28:28.584Z,4.20
2017-11-29T13:30:58.106Z,4.80
2017-11-29T13:33:26.595Z,4.90
2017-11-29T13:35:55.378Z,4.90
2017-11-29T13:38:23.876Z,5.20
2017-11-29T13:40:52.337Z,5.40
2017-11-29T13:43:22.850Z,5.50
2017-11-29T13:45:51.360Z,5.40
2017-11-29T13:48:19.854Z,5.20
2017-11-29T13:50:48.466Z,5.00
2017-11-29T13:53:16.984Z,4.90
2017-11-29T13:55:46.616Z,4.90
2017-11-29T13:58:15.123Z,4.70
2017-11-29T14:00:43.620Z,4.40
2017-11-29T14:03:12.134Z,4.20
2017-11-29T14:05:41.348Z,4.10
2017-11-29T14:08:09.869Z,4.00
2017-11-29T14:10:38.414Z,3.90
2017-11-29T14:13:07.189Z,3.90
2017-11-29T14:15:35.629Z,3.90
2017-11-29T14:18:04.064Z,3.90
2017-11-29T14:20:32.952Z,3.80
2017-11-29T14:23:01.361Z,3.90
2017-11-29T14:25:29.812Z,4.00
2017-11-29T14:27:58.392Z,4.00
2017-11-29T14:30:26.845Z,4.00
2017-11-29T14:32:56.420Z,4.00
2017-11-29T14:35:25.741Z,4.00
2017-11-29T14:37:54.379Z,3.90
2017-11-29T14:40:22.784Z,3.80
2017-11-29T14:42:51.778Z,3.80
2017-11-29T14:45:20.430Z,3.70
2017-11-29T14:47:48.936Z,3.70
2017-11-29T14:50:17.537Z,3.70
2017-11-29T14:52:46.017Z,3.70
2017-11-29T14:55:14.554Z,3.70
2017-11-29T14:57:43.192Z,3.70
2017-11-29T15:00:11.608Z,3.80
2017-11-29T15:02:40.982Z,3.70
2017-11-29T15:05:10.515Z,3.00
2017-11-29T15:07:39.169Z,3.00
2017-11-29T15:10:07.735Z,2.90
2017-11-29T15:12:36.348Z,2.90
2017-11-29T15:15:05.537Z,2.80
2017-11-29T15:17:34.703Z,2.70
2017-11-29T15:20:03.468Z,2.70
2017-11-29T15:22:31.883Z,2.60
2017-11-29T15:25:00.296Z,2.50
2017-11-29T15:27:30.156Z,2.30
2017-11-29T15:29:58.599Z,2.30
2017-11-29T15:32:27.112Z,2.30
2017-11-29T15:34:55.986Z,2.20
2017-11-29T15:37:24.436Z,2.20
2017-11-29T15:39:53.680Z,2.20
2017-11-29T15:42:22.148Z,2.20
2017-11-29T15:44:50.608Z,2.20
2017-11-29T15:47:19.155Z,2.30
2017-11-29T15:49:47.787Z,2.20
2017-11-29T15:52:16.226Z,2.30
2017-11-29T15:54:44.680Z,2.20
2017-11-29T15:57:13.533Z,2.30
2017-11-29T15:59:42.074Z,2.40
2017-11-29T16:02:10.497Z,2.30
2017-11-29T16:04:38.945Z,2.30
2017-11-29T16:07:08.119Z,2.30
2017-11-29T16:09:36.741Z,2.30
2017-11-29T16:12:06.452Z,2.30
2017-11-29T16:14:35.661Z,2.30
2017-11-29T16:17:04.132Z,2.30
2017-11-29T16:19:32.751Z,2.40
2017-11-29T16:22:01.236Z,2.30
2017-11-29T16:24:30.012Z,2.30
2017-11-29T16:26:58.464Z,2.30
2017-11-29T16:29:27.677Z,2.40
2017-11-29T16:31:56.179Z,2.30
2017-11-29T16:34:24.730Z,2.30
2017-11-29T16:36:53.973Z,2.10
2017-11-29T16:39:22.414Z,2.10
2017-11-29T16:41:51.003Z,2.10
2017-11-29T16:44:19.414Z,2.10
2017-11-29T16:46:48.696Z,2.00
2017-11-29T16:51:52.900Z,2.00
2017-11-29T16:54:21.499Z,1.90
2017-11-29T16:56:49.962Z,2.00
2017-11-29T16:59:19.135Z,2.00
2017-11-29T17:01:47.950Z,2.00
2017-11-29T17:04:17.166Z,1.90
2017-11-29T17:06:45.655Z,1.90
2017-11-29T17:09:14.536Z,1.90
2017-11-29T17:11:43.498Z,1.90
2017-11-29T17:14:11.930Z,1.80
2017-11-29T17:16:40.420Z,1.80
2017-11-29T17:19:08.913Z,1.90
2017-11-29T17:21:38.159Z,1.70
2017-11-29T17:24:06.916Z,1.70
2017-11-29T17:26:35.355Z,1.60
2017-11-29T17:29:03.820Z,1.60
2017-11-29T17:31:32.361Z,1.50
2017-11-29T17:34:00.759Z,1.50
2017-11-29T17:36:29.309Z,1.50
2017-11-29T17:38:58.100Z,1.50
2017-11-29T17:41:26.541Z,1.50
2017-11-29T17:43:54.978Z,1.60
2017-11-29T17:46:23.762Z,1.60
2017-11-29T17:48:52.226Z,1.50
2017-11-29T17:51:20.681Z,1.50
2017-11-29T17:53:49.410Z,1.60
2017-11-29T17:56:17.829Z,1.40
2017-11-29T17:58:46.248Z,1.40
2017-11-29T18:01:15.012Z,1.40
2017-11-29T18:03:43.426Z,1.40
2017-11-29T18:06:11.780Z,1.50
2017-11-29T18:08:42.300Z,1.50
2017-11-29T18:11:10.718Z,1.40
2017-11-29T18:13:39.508Z,1.40
2017-11-29T18:16:07.998Z,1.40
2017-11-29T18:18:37.215Z,1.40
2017-11-29T18:21:06.414Z,1.40
2017-11-29T18:23:35.262Z,1.30
2017-11-29T18:26:03.789Z,1.30
2017-11-29T18:28:32.326Z,1.40
2017-11-29T18:31:01.175Z,1.30
2017-11-29T18:33:29.612Z,1.30
2017-11-29T18:35:58.028Z,1.30
2017-11-29T18:38:26.673Z,1.30
2017-11-29T18:40:55.115Z,1.40
2017-11-29T18:43:23.586Z,1.30
2017-11-29T18:45:52.102Z,1.30
2017-11-29T18:48:21.367Z,1.30
2017-11-29T18:50:50.009Z,1.20
2017-11-29T18:53:19.428Z,1.30
2017-11-29T18:55:47.844Z,1.30
2017-11-29T18:58:16.285Z,1.40
2017-11-29T19:00:44.813Z,1.30
2017-11-29T19:03:13.336Z,1.40
2017-11-29T19:05:41.864Z,1.30
2017-11-29T19:08:10.560Z,1.40
2017-11-29T19:10:39.100Z,1.40
2017-11-29T19:13:07.607Z,1.40
2017-11-29T19:15:36.567Z,1.40
2017-11-29T19:18:05.123Z,1.40
2017-11-29T19:20:33.592Z,1.30
2017-11-29T19:23:02.382Z,1.30
2017-11-29T19:25:30.898Z,1.20
2017-11-29T19:28:00.237Z,1.20
2017-11-29T19:30:28.981Z,1.20
2017-11-29T19:32:58.174Z,1.10
2017-11-29T19:35:28.393Z,1.10
2017-11-29T19:37:58.896Z,1.10
2017-11-29T19:40:28.414Z,1.10
2017-11-29T19:42:56.936Z,1.10
2017-11-29T19:45:25.732Z,1.10
2017-11-29T19:47:54.962Z,1.00
2017-11-29T19:50:23.396Z,1.00
2017-11-29T19:52:53.013Z,1.00
2017-11-29T19:55:21.434Z,1.10
2017-11-29T19:57:49.886Z,1.10
2017-11-29T20:00:18.476Z,0.90
2017-11-29T20:02:46.945Z,0.90
2017-11-29T20:05:15.624Z,0.80
2017-11-29T20:07:44.253Z,0.90
2017-11-29T20:10:12.706Z,0.90
2017-11-29T20:12:41.232Z,1.00
2017-11-29T20:15:10.615Z,1.10
2017-11-29T20:17:39.268Z,1.00
2017-11-29T20:20:07.785Z,1.00
2017-11-29T20:22:36.535Z,1.00
2017-11-29T20:25:04.974Z,1.00
2017-11-29T20:27:33.456Z,0.90
2017-11-29T20:30:02.489Z,0.90
2017-11-29T20:32:30.898Z,1.00
2017-11-29T20:34:59.323Z,1.10
2017-11-29T20:37:28.591Z,1.00
2017-11-29T20:39:57.786Z,1.00
2017-11-29T20:42:26.274Z,1.00
2017-11-29T20:44:55.061Z,1.00
2017-11-29T20:47:23.475Z,1.10
2017-11-29T20:49:51.904Z,1.20
2017-11-29T20:52:32.436Z,1.20
2017-11-29T20:55:00.910Z,1.20
2017-11-29T20:57:29.405Z,1.10
2017-11-29T20:59:58.036Z,0.90
2017-11-29T21:02:26.487Z,1.10
2017-11-29T21:04:54.940Z,1.10
2017-11-29T21:07:23.377Z,1.00
2017-11-29T21:09:51.823Z,1.00
2017-11-29T21:12:20.340Z,0.90
2017-11-29T21:14:48.813Z,0.90
2017-11-29T21:17:17.458Z,1.00
2017-11-29T21:19:46.234Z,1.00
2017-11-29T21:22:14.720Z,1.00
2017-11-29T21:24:43.148Z,1.00
2017-11-29T21:27:11.560Z,1.10
2017-11-29T21:29:41.176Z,1.20
2017-11-29T21:32:09.624Z,1.20
2017-11-29T21:34:38.032Z,1.30
2017-11-29T21:37:07.472Z,1.30
2017-11-29T21:39:36.435Z,1.30
2017-11-29T21:42:05.230Z,1.30
2017-11-29T21:44:33.837Z,1.30
2017-11-29T21:47:02.223Z,1.30
2017-11-29T21:49:30.670Z,1.30
2017-11-29T21:51:59.134Z,1.30
2017-11-29T21:54:28.413Z,1.20
2017-11-29T21:56:56.851Z,1.20
2017-11-29T21:59:25.489Z,1.20
2017-11-29T22:01:54.677Z,1.30
2017-11-29T22:04:23.107Z,1.30
2017-11-29T22:06:51.859Z,1.40
2017-11-29T22:09:21.025Z,1.40
2017-11-29T22:11:50.181Z,1.40
2017-11-29T22:14:18.767Z,1.40
2017-11-29T22:16:47.217Z,1.40
2017-11-29T22:19:17.171Z,1.40
2017-11-29T22:21:45.723Z,1.40
2017-11-29T22:24:14.932Z,1.30
2017-11-29T22:26:43.400Z,1.30
2017-11-29T22:29:12.689Z,1.30
2017-11-29T22:31:42.018Z,1.30
2017-11-29T22:34:10.458Z,1.20
2017-11-29T22:36:39.573Z,1.10
2017-11-29T22:39:08.739Z,1.30
2017-11-29T22:41:37.201Z,1.30
2017-11-29T22:44:05.854Z,1.30
2017-11-29T22:46:35.236Z,1.30
2017-11-29T22:49:03.659Z,1.30
2017-11-29T22:51:32.459Z,1.30
2017-11-29T22:54:00.908Z,1.40
2017-11-29T22:56:29.703Z,1.30
2017-11-29T22:58:58.374Z,1.40
2017-11-29T23:01:26.769Z,1.40
2017-11-29T23:03:55.183Z,1.40
2017-11-29T23:06:23.803Z,1.40
2017-11-29T23:08:53.023Z,1.50
2017-11-29T23:11:21.436Z,1.50
2017-11-29T23:13:49.965Z,1.30
2017-11-29T23:16:19.238Z,1.20
2017-11-29T23:18:47.659Z,1.20
2017-11-29T23:21:16.436Z,1.20
2017-11-29T23:23:45.797Z,1.40
2017-11-29T23:26:14.249Z,1.40
2017-11-29T23:28:42.890Z,1.40
2017-11-29T23:31:12.078Z,1.40
2017-11-29T23:33:41.307Z,1.40
2017-11-29T23:36:09.788Z,1.40
2017-11-29T23:38:38.335Z,1.20
2017-11-29T23:41:06.754Z,1.10
2017-11-29T23:43:35.227Z,1.00
2017-11-29T23:46:03.891Z,0.90
2017-11-29T23:48:33.133Z,0.80
2017-11-29T23:51:01.874Z,0.80
2017-11-29T23:53:30.295Z,0.70
2017-11-29T23:55:58.767Z,0.70
2017-11-29T23:58:27.342Z,0.80
